Impacts METAR Board
IDs:

KSAT - San Antonio Intl, TX, US

Updated at: 2100 UTC 23 Jan 2020
Potential Impact None Slight Moderate High
Time 23/09Z 23/10Z 23/11Z 23/12Z 23/13Z 23/14Z 23/15Z 23/16Z 23/17Z 23/18Z 23/19Z 23/20Z 23/21Z
Temp53 53 51 50 48 50 55 59 65 68 70 72 72
Dewpt51 51 48 48 47 46 49 49 49 47 45 41 41
Altim29.91 29.92 29.92 29.94 29.95 29.97 29.99 30.01 30.03 30.03 30.00 29.98 29.97
VIS10 10 9 10 10 10 10 10 10 10 10 10 10
CIG7 5 -- -- -- -- -- -- -- -- -- -- --
CoverBKNOVCSCTFEWCLRCLRCLRCLRFEWFEWFEWFEWFEW
FltCatIFRIFRVFRVFRVFRVFRVFRVFRVFRVFRVFRVFRVFR
WX--------------------------
WDir2503102502902703203303303503401035010
WSpd4 7 3 5 5 4 9 13 9 10 9 10 11
WGst-- -- -- -- -- -- -- -- -- 18 -- 15 --
R04/22
XWnd 2 7 1 5 4 4 9 12 7 9 5 8 6
XGst -- -- -- -- -- -- -- -- -- 16 -- 12 --
HWnd -3 -0 -3 -2 -3 1 3 4 6 5 8 6 9
HGst -- -- -- -- -- -- -- -- -- 9 -- 9 --
R12/30
XWnd -4 -0 -3 -2 -3 1 3 4 6 5 8 6 9
XGst -- -- -- -- -- -- -- -- -- 8 -- 9 --
HWnd -2 -7 -1 -5 -4 -4 -9 -12 -7 -9 -5 -8 -6
HGst -- -- -- -- -- -- -- -- -- -16 -- -12 --
Raw hourly METARs
KSAT 230851Z 25004KT 10SM BKN007 BKN090 12/11 A2991 RMK AO2 SLP116 T01170106 56010
KSAT 230951Z 31007KT 10SM OVC005 12/11 A2992 RMK AO2 SLP120 T01170106
KSAT 231051Z 25003KT 9SM FEW005 SCT090 11/09 A2992 RMK AO2 SLP122 T01060089
KSAT 231151Z 29005KT 10SM FEW005 10/09 A2994 RMK AO2 SLP126 70035 T01000089 10128 20100 53010
KSAT 231251Z 27005KT 10SM CLR 09/08 A2995 RMK AO2 SLP132 T00890083
KSAT 231351Z 32004KT 10SM CLR 10/08 A2997 RMK AO2 SLP138 T01000078
KSAT 231451Z 33009KT 10SM CLR 13/09 A2999 RMK AO2 SLP144 T01280094 52018
KSAT 231551Z 33013KT 10SM CLR 15/09 A3001 RMK AO2 SLP149 T01500094
KSAT 231651Z 35009KT 10SM FEW250 18/09 A3003 RMK AO2 SLP156 T01830094
KSAT 231751Z 34010G18KT 10SM FEW250 20/08 A3003 RMK AO2 SLP158 T02000083 10200 20089 51015
KSAT 231851Z 01009KT 10SM FEW250 21/07 A3000 RMK AO2 SLP146 T02110072
KSAT 231951Z 35010G15KT 10SM FEW250 22/05 A2998 RMK AO2 SLP140 T02220050
KSAT 232051Z 01011KT 10SM FEW250 22/05 A2997 RMK AO2 SLP135 T02220050 56021



Page loaded:  21:07 UTC  |   01:07 PM Pacific  |   02:07 PM Mountain  |   03:07 PM Central  |   04:07 PM Eastern

 

ADVISORIES

FORECASTS

FORECASTS

OBSERVATIONS

USER TOOLS

ABOUT US